Time;durP1;ratioP1;P1;durP2;ratioP2;P2;SDS_P1;SDS_P2;PMS_P1;PMS_P2;Temp;Humidity;BMP_temperature;BMP_pressure;BME280_temperature;BME280_humidity;BME280_pressure;Samples;Min_cycle;Max_cycle;Signal;HPM_P1;HPM_P2
2024/04/04 00:05:50;;;;;;;9.60;5.47;;;3.20;99.90;;;;;;5113916;28;20648;-76
2024/04/04 00:08:37;;;;;;;9.63;5.07;;;3.20;99.90;;;;;;5097465;28;20209;-76
2024/04/04 00:11:24;;;;;;;8.27;5.13;;;3.10;99.90;;;;;;5099328;28;20661;-76
2024/04/04 00:14:10;;;;;;;7.43;4.93;;;3.00;99.90;;;;;;5085858;28;20565;-76
2024/04/04 00:16:57;;;;;;;9.40;4.67;;;3.00;99.90;;;;;;5099066;28;20244;-76
2024/04/04 00:19:47;;;;;;;9.10;4.90;;;3.00;99.90;;;;;;5098108;28;20209;-76
2024/04/04 00:22:33;;;;;;;7.50;4.77;;;3.00;99.90;;;;;;5085057;28;20267;-76
2024/04/04 00:25:20;;;;;;;7.00;4.60;;;2.90;99.90;;;;;;5099692;28;20189;-75
2024/04/04 00:28:06;;;;;;;6.47;4.20;;;2.90;99.90;;;;;;5099003;28;20691;-75
2024/04/04 00:30:53;;;;;;;7.53;4.50;;;2.90;99.90;;;;;;5084851;28;20677;-75
2024/04/04 00:33:39;;;;;;;9.10;5.00;;;2.90;99.90;;;;;;5098522;28;20202;-75
2024/04/04 00:36:26;;;;;;;7.73;4.80;;;2.80;99.90;;;;;;5084539;28;20197;-75
2024/04/04 00:39:15;;;;;;;10.03;4.70;;;2.80;99.90;;;;;;5097587;28;20212;-75
2024/04/04 00:42:01;;;;;;;8.77;4.60;;;2.80;99.90;;;;;;5083794;28;20192;-75
2024/04/04 00:44:48;;;;;;;8.53;5.17;;;2.70;99.90;;;;;;5098596;28;20559;-76
2024/04/04 00:47:34;;;;;;;9.63;4.33;;;2.80;99.90;;;;;;5098582;28;20232;-76
2024/04/04 00:50:21;;;;;;;8.07;4.70;;;2.80;99.90;;;;;;5097066;28;20209;-76
2024/04/04 00:53:09;;;;;;;8.27;4.70;;;2.70;99.90;;;;;;5083798;28;20193;-75
2024/04/04 00:55:55;;;;;;;9.03;5.33;;;2.60;99.90;;;;;;5097173;28;20189;-75
2024/04/04 00:58:42;;;;;;;7.93;4.80;;;2.70;99.90;;;;;;5083097;28;20654;-75
2024/04/04 01:01:29;;;;;;;6.87;4.77;;;2.70;99.90;;;;;;5097254;28;20194;-75
2024/04/04 01:04:15;;;;;;;6.73;4.70;;;2.60;99.90;;;;;;5097777;28;20214;-75
2024/04/04 01:07:02;;;;;;;8.00;5.03;;;2.60;99.90;;;;;;5097513;28;20209;-75
2024/04/04 01:09:48;;;;;;;6.83;4.47;;;2.60;99.90;;;;;;5096736;28;20664;-75
2024/04/04 01:15:48;;;;;;;7.80;4.57;;;2.50;99.90;;;;;;5095244;28;20215;-75
2024/04/04 01:19:12;;;;;;;7.23;4.50;;;2.50;99.90;;;;;;5076796;28;20202;-75
2024/04/04 01:21:58;;;;;;;7.77;4.67;;;2.50;99.90;;;;;;5077081;28;20189;-75
2024/04/04 01:24:45;;;;;;;7.77;4.20;;;2.50;99.90;;;;;;5063168;28;20569;-75
2024/04/04 01:27:35;;;;;;;7.17;4.77;;;2.50;99.90;;;;;;5077460;28;20214;-75
2024/04/04 01:30:28;;;;;;;6.87;4.20;;;2.50;99.90;;;;;;5062643;28;20197;-75
2024/04/04 01:33:14;;;;;;;8.13;4.90;;;2.40;99.90;;;;;;5076235;28;20666;-75
2024/04/04 01:36:01;;;;;;;7.20;4.40;;;2.50;99.90;;;;;;5075480;28;20675;-75
2024/04/04 01:39:03;;;;;;;7.33;4.70;;;2.50;99.90;;;;;;5077148;28;20205;-75
2024/04/04 01:41:50;;;;;;;7.70;4.20;;;2.50;99.90;;;;;;5090240;28;20323;-75
2024/04/04 01:44:36;;;;;;;7.00;3.63;;;2.50;99.90;;;;;;5062523;28;20695;-75
2024/04/04 01:47:23;;;;;;;7.67;4.43;;;2.50;99.90;;;;;;5076575;28;20716;-75
2024/04/04 01:50:31;;;;;;;8.37;4.57;;;2.50;99.90;;;;;;5063042;28;20227;-76
2024/04/04 01:53:17;;;;;;;8.93;4.80;;;2.50;99.90;;;;;;5062373;28;20330;-76
2024/04/04 01:56:03;;;;;;;6.53;4.70;;;2.50;99.90;;;;;;5076649;28;20645;-75
2024/04/04 01:58:53;;;;;;;8.17;5.00;;;2.50;99.90;;;;;;5075921;28;20197;-76
2024/04/04 02:01:41;;;;;;;7.23;4.80;;;2.50;99.90;;;;;;5076992;28;20672;-76
2024/04/04 02:04:28;;;;;;;8.80;4.93;;;2.50;99.90;;;;;;5075727;28;20211;-75
2024/04/04 02:07:14;;;;;;;9.00;5.23;;;2.50;99.90;;;;;;5076291;28;20255;-75
2024/04/04 02:10:04;;;;;;;8.60;4.67;;;2.50;99.90;;;;;;5076628;28;20282;-74
2024/04/04 02:12:51;;;;;;;9.43;5.20;;;2.50;99.90;;;;;;5076459;28;20698;-76
2024/04/04 02:15:39;;;;;;;9.33;5.10;;;2.50;99.90;;;;;;5076642;28;20201;-75
2024/04/04 02:18:25;;;;;;;8.67;5.47;;;2.50;99.90;;;;;;5075704;28;20198;-75
2024/04/04 02:21:12;;;;;;;10.73;5.67;;;2.50;99.90;;;;;;5075857;28;20207;-76
2024/04/04 02:23:59;;;;;;;8.87;5.27;;;2.50;99.90;;;;;;5075043;28;20272;-76
2024/04/04 02:26:48;;;;;;;10.13;5.80;;;2.50;99.90;;;;;;5062685;28;20193;-75
2024/04/04 02:29:35;;;;;;;9.00;5.10;;;2.60;99.90;;;;;;5061866;28;20198;-76
2024/04/04 02:32:21;;;;;;;9.23;4.97;;;2.60;99.90;;;;;;5076306;28;20623;-76
2024/04/04 02:35:08;;;;;;;8.90;5.10;;;2.60;99.90;;;;;;5075640;28;20749;-76
2024/04/04 02:37:55;;;;;;;7.80;5.00;;;2.60;99.90;;;;;;5076060;28;20194;-76
2024/04/04 02:40:44;;;;;;;9.13;4.80;;;2.50;99.90;;;;;;5076711;28;20195;-76
2024/04/04 02:43:34;;;;;;;8.37;4.50;;;2.50;99.90;;;;;;5075471;28;20186;-76
2024/04/04 02:46:20;;;;;;;8.33;4.60;;;2.50;99.90;;;;;;5075284;28;20196;-76
2024/04/04 02:49:07;;;;;;;8.13;5.13;;;2.60;99.90;;;;;;5062495;28;20213;-76
2024/04/04 02:51:53;;;;;;;8.30;5.30;;;2.60;99.90;;;;;;5074950;28;20645;-76
2024/04/04 02:54:40;;;;;;;8.70;5.00;;;2.60;99.90;;;;;;5076433;28;20185;-75
2024/04/04 02:57:26;;;;;;;10.07;5.13;;;2.60;99.90;;;;;;5076596;28;20254;-75
2024/04/04 03:00:13;;;;;;;8.00;4.60;;;2.70;99.90;;;;;;5062568;28;20189;-76
2024/04/04 03:03:00;;;;;;;6.80;4.73;;;2.60;99.90;;;;;;5061793;28;20188;-76
2024/04/04 03:05:46;;;;;;;8.80;5.07;;;2.70;99.90;;;;;;5060207;28;20243;-76
2024/04/04 03:08:33;;;;;;;8.50;5.10;;;2.70;99.90;;;;;;5074869;28;20221;-76
2024/04/04 03:11:19;;;;;;;10.67;5.17;;;2.70;99.90;;;;;;5075679;28;20195;-76
2024/04/04 03:14:06;;;;;;;9.17;5.40;;;2.70;99.90;;;;;;5075251;28;20197;-75
2024/04/04 03:16:53;;;;;;;9.10;5.07;;;2.70;99.90;;;;;;5081439;28;20227;-75
2024/04/04 03:19:39;;;;;;;9.00;5.50;;;2.70;99.90;;;;;;5105131;28;20217;-75
2024/04/04 03:22:26;;;;;;;9.43;5.80;;;2.70;99.90;;;;;;5095122;28;20199;-75
2024/04/04 03:25:13;;;;;;;8.83;5.50;;;2.70;99.90;;;;;;5111279;28;20191;-76
2024/04/04 03:28:00;;;;;;;9.83;5.60;;;2.80;99.90;;;;;;5098967;28;20221;-75
2024/04/04 03:30:46;;;;;;;10.90;5.97;;;2.80;99.90;;;;;;5092927;28;20195;-75
2024/04/04 03:33:33;;;;;;;9.60;5.37;;;2.80;99.90;;;;;;5092701;28;20239;-75
2024/04/04 03:36:20;;;;;;;10.53;5.53;;;2.80;99.90;;;;;;5093347;28;20205;-76
2024/04/04 03:39:09;;;;;;;8.73;5.57;;;2.80;99.90;;;;;;5092829;28;20217;-75
2024/04/04 03:42:15;;;;;;;9.37;5.60;;;2.70;99.90;;;;;;5092986;28;20186;-75
2024/04/04 03:45:05;;;;;;;11.10;5.90;;;2.70;99.90;;;;;;5093106;28;20197;-75
2024/04/04 03:48:10;;;;;;;11.47;6.50;;;2.70;99.90;;;;;;5092075;28;20215;-75
2024/04/04 03:50:57;;;;;;;10.70;6.40;;;2.80;99.90;;;;;;5093161;28;20218;-76
2024/04/04 03:53:46;;;;;;;10.27;6.50;;;2.80;99.90;;;;;;5079070;28;20199;-76
2024/04/04 03:56:36;;;;;;;12.37;6.10;;;2.70;99.90;;;;;;5092236;28;20197;-76
2024/04/04 03:59:23;;;;;;;11.70;6.50;;;2.80;99.90;;;;;;5093113;28;20558;-76
2024/04/04 04:02:10;;;;;;;11.17;5.80;;;2.70;99.90;;;;;;5092342;28;20202;-76
2024/04/04 04:04:56;;;;;;;8.87;4.90;;;2.70;99.90;;;;;;5093286;28;20211;-75
2024/04/04 04:08:02;;;;;;;8.63;4.67;;;2.70;99.90;;;;;;5077307;28;20535;-75
2024/04/04 04:10:48;;;;;;;10.50;5.03;;;2.70;99.90;;;;;;5093225;28;20204;-75
2024/04/04 04:16:46;;;;;;;8.07;4.50;;;2.70;99.90;;;;;;5091876;28;20324;-74
2024/04/04 04:19:32;;;;;;;7.30;4.23;;;2.60;99.90;;;;;;5091953;28;20214;-75
2024/04/04 04:22:19;;;;;;;6.53;3.80;;;2.70;99.90;;;;;;5078256;28;20566;-74
2024/04/04 04:25:06;;;;;;;6.63;3.90;;;2.70;99.90;;;;;;5093008;28;20601;-75
2024/04/04 04:27:52;;;;;;;5.53;3.43;;;2.70;99.90;;;;;;5078709;28;20226;-75
2024/04/04 04:30:54;;;;;;;5.60;3.47;;;2.70;99.90;;;;;;5050717;28;20211;-75
2024/04/04 04:33:40;;;;;;;4.83;3.10;;;2.70;99.90;;;;;;5035794;28;20194;-75
2024/04/04 04:36:31;;;;;;;6.40;3.67;;;2.80;99.90;;;;;;5049953;28;20195;-75
2024/04/04 04:39:30;;;;;;;4.87;3.37;;;2.80;99.90;;;;;;5024415;28;20213;-76
2024/04/04 04:42:17;;;;;;;6.20;3.70;;;2.80;99.90;;;;;;5039312;28;20191;-78
2024/04/04 04:45:04;;;;;;;4.80;3.30;;;2.90;99.90;;;;;;5035481;28;20205;-72
2024/04/04 04:48:11;;;;;;;6.17;3.30;;;3.00;99.90;;;;;;5037533;28;20618;-71
2024/04/04 04:51:00;;;;;;;5.60;3.13;;;3.00;99.90;;;;;;4965591;28;21340;-71
2024/04/04 04:53:55;;;;;;;5.30;2.70;;;3.10;99.90;;;;;;4978621;28;20197;-71
2024/04/04 04:56:41;;;;;;;4.57;3.20;;;3.20;99.90;;;;;;4978707;28;20225;-71
2024/04/04 04:59:28;;;;;;;4.60;3.27;;;3.20;99.90;;;;;;4977280;28;20195;-71
2024/04/04 05:02:16;;;;;;;4.67;3.30;;;3.30;99.90;;;;;;4978276;28;20238;-71
2024/04/04 05:05:15;;;;;;;6.97;3.27;;;3.20;99.90;;;;;;4965200;28;20223;-71
2024/04/04 05:08:02;;;;;;;5.40;3.30;;;3.30;99.90;;;;;;4987620;28;20750;-71
2024/04/04 05:10:49;;;;;;;5.20;3.50;;;3.30;99.90;;;;;;5016403;28;20700;-71
2024/04/04 05:13:35;;;;;;;8.70;4.00;;;3.30;99.90;;;;;;5016303;28;20198;-71
2024/04/04 05:16:22;;;;;;;6.27;3.83;;;3.40;99.90;;;;;;5015473;28;20229;-71
2024/04/04 05:19:09;;;;;;;9.40;4.50;;;3.50;99.90;;;;;;5030109;28;20223;-72
2024/04/04 05:21:55;;;;;;;6.47;3.90;;;3.60;99.90;;;;;;5029768;28;20587;-71
2024/04/04 05:24:41;;;;;;;9.30;4.50;;;3.50;99.90;;;;;;5016402;28;20693;-70
2024/04/04 05:27:28;;;;;;;8.83;4.80;;;3.60;99.90;;;;;;5038130;28;20225;-71
2024/04/04 05:30:14;;;;;;;9.30;4.63;;;3.60;99.90;;;;;;5077842;28;20193;-70
2024/04/04 05:33:02;;;;;;;11.20;4.70;;;3.70;99.90;;;;;;5076732;28;20185;-71
2024/04/04 05:35:51;;;;;;;8.57;4.90;;;3.70;99.90;;;;;;5077861;28;20285;-71
2024/04/04 05:38:37;;;;;;;7.83;4.47;;;3.80;99.90;;;;;;5075681;28;20189;-70
2024/04/04 05:41:27;;;;;;;7.27;4.73;;;3.70;99.90;;;;;;5063507;28;20682;-71
2024/04/04 05:44:14;;;;;;;7.13;4.20;;;3.90;99.90;;;;;;5075906;28;20202;-71
2024/04/04 05:47:01;;;;;;;8.90;4.83;;;4.00;99.90;;;;;;5076392;28;20198;-71
2024/04/04 05:49:47;;;;;;;9.13;5.00;;;4.20;99.90;;;;;;5076665;28;20233;-71
2024/04/04 05:52:34;;;;;;;9.97;5.53;;;4.30;99.90;;;;;;5077765;28;20197;-71
2024/04/04 05:55:20;;;;;;;8.97;5.40;;;4.30;99.90;;;;;;5076524;28;20200;-71
2024/04/04 05:58:07;;;;;;;11.30;5.40;;;4.40;99.90;;;;;;5064301;28;20193;-71
2024/04/04 06:00:53;;;;;;;11.57;5.90;;;4.40;99.90;;;;;;5075823;28;20199;-71
2024/04/04 06:03:42;;;;;;;9.40;5.80;;;4.40;99.90;;;;;;5063089;28;20287;-71
2024/04/04 06:06:28;;;;;;;9.70;5.90;;;4.40;99.90;;;;;;5076181;28;20194;-71
2024/04/04 06:09:15;;;;;;;9.50;5.40;;;4.50;99.90;;;;;;5076873;28;20200;-71
2024/04/04 06:12:01;;;;;;;11.10;5.80;;;4.50;99.90;;;;;;5076369;28;20203;-71
2024/04/04 06:14:48;;;;;;;62.23;26.10;;;4.50;99.90;;;;;;5076373;28;20195;-71
2024/04/04 06:17:34;;;;;;;13.77;7.30;;;4.70;99.90;;;;;;5079762;28;20242;-71
2024/04/04 06:20:23;;;;;;;24.03;6.73;;;4.80;99.90;;;;;;5096319;28;20203;-71
2024/04/04 06:23:09;;;;;;;8.67;5.83;;;4.80;99.90;;;;;;5081937;28;20193;-70
2024/04/04 06:25:55;;;;;;;10.60;6.03;;;5.00;99.90;;;;;;5096492;28;20193;-71
2024/04/04 06:28:44;;;;;;;8.87;5.43;;;5.10;99.90;;;;;;5095503;28;20695;-71
2024/04/04 06:31:30;;;;;;;12.70;6.17;;;5.20;99.90;;;;;;5096471;28;20578;-72
2024/04/04 06:34:19;;;;;;;13.47;6.37;;;5.30;99.90;;;;;;5096196;28;20700;-71
2024/04/04 06:37:05;;;;;;;9.10;6.10;;;5.30;99.90;;;;;;5096849;28;20205;-71
2024/04/04 06:39:51;;;;;;;10.30;6.13;;;5.40;99.90;;;;;;5096892;28;20194;-71
2024/04/04 06:42:37;;;;;;;7.73;5.37;;;5.50;99.90;;;;;;5096029;28;20202;-71
2024/04/04 06:45:24;;;;;;;9.23;6.03;;;5.40;99.90;;;;;;5095690;28;20425;-71
2024/04/04 06:48:11;;;;;;;9.97;5.93;;;5.50;99.90;;;;;;5096085;28;20216;-71
2024/04/04 06:50:58;;;;;;;10.40;5.53;;;5.50;99.90;;;;;;5096041;28;20206;-71
2024/04/04 06:53:44;;;;;;;10.87;5.23;;;5.40;99.90;;;;;;5096715;28;20249;-72
2024/04/04 06:56:30;;;;;;;7.60;4.97;;;5.50;99.90;;;;;;5099830;28;20198;-72
2024/04/04 06:59:17;;;;;;;7.87;5.00;;;5.40;99.90;;;;;;5099648;28;20533;-71
2024/04/04 07:02:04;;;;;;;8.03;5.03;;;5.40;99.90;;;;;;5100748;28;20191;-71
2024/04/04 07:04:50;;;;;;;11.17;5.30;;;5.40;99.90;;;;;;5099963;28;20212;-71
2024/04/04 07:07:56;;;;;;;8.60;5.43;;;5.50;99.90;;;;;;5099879;28;20691;-72
2024/04/04 07:10:42;;;;;;;11.00;5.27;;;5.80;99.90;;;;;;5099921;28;20199;-71
2024/04/04 07:13:29;;;;;;;10.33;5.23;;;5.80;99.90;;;;;;5100494;28;20195;-72
2024/04/04 07:16:17;;;;;;;8.47;5.17;;;5.80;99.90;;;;;;5100262;28;20228;-71
2024/04/04 07:19:04;;;;;;;10.07;5.20;;;5.90;99.90;;;;;;5099399;28;20218;-72
2024/04/04 07:21:52;;;;;;;8.70;5.53;;;6.00;99.90;;;;;;5100337;28;20200;-71
2024/04/04 07:24:38;;;;;;;8.40;5.07;;;6.00;99.90;;;;;;5099723;28;20196;-71
2024/04/04 07:27:24;;;;;;;9.13;5.47;;;6.00;99.90;;;;;;5086734;28;20223;-71
2024/04/04 07:30:17;;;;;;;9.27;5.03;;;6.10;99.90;;;;;;5084756;28;20187;-72
2024/04/04 07:33:05;;;;;;;8.13;5.13;;;6.30;99.90;;;;;;5099223;28;20200;-72
2024/04/04 07:35:54;;;;;;;10.90;5.57;;;6.30;99.90;;;;;;5100034;28;20211;-72
2024/04/04 07:38:49;;;;;;;9.67;5.43;;;6.20;99.90;;;;;;5099532;28;20190;-72
2024/04/04 07:41:48;;;;;;;9.30;5.43;;;6.20;99.90;;;;;;5100457;28;20201;-71
2024/04/04 07:44:40;;;;;;;9.07;5.43;;;6.30;99.90;;;;;;5098819;28;20206;-72
2024/04/04 07:47:27;;;;;;;8.57;5.90;;;6.40;99.90;;;;;;5084729;28;20605;-71
2024/04/04 07:50:16;;;;;;;10.53;6.10;;;6.30;99.90;;;;;;5099780;28;20679;-72
2024/04/04 07:53:03;;;;;;;11.77;6.00;;;6.30;99.90;;;;;;5100240;28;20562;-71
2024/04/04 07:56:00;;;;;;;9.87;5.57;;;6.40;99.90;;;;;;5098428;28;20187;-71
2024/04/04 07:59:30;;;;;;;11.70;6.37;;;6.40;99.90;;;;;;5114318;28;20176;-71
2024/04/04 08:02:19;;;;;;;12.77;6.50;;;6.50;99.90;;;;;;5100118;28;20191;-72
2024/04/04 08:05:06;;;;;;;11.00;6.53;;;6.60;99.90;;;;;;5099294;28;20262;-72
2024/04/04 08:07:52;;;;;;;10.07;6.20;;;6.70;99.90;;;;;;5098109;28;20216;-71
2024/04/04 08:11:05;;;;;;;10.43;6.20;;;6.80;99.90;;;;;;5098397;28;20192;-72
2024/04/04 08:14:16;;;;;;;10.00;6.17;;;7.00;99.90;;;;;;5114170;28;20214;-71
2024/04/04 08:17:03;;;;;;;11.40;6.43;;;7.10;99.90;;;;;;5099054;28;20228;-72
2024/04/04 08:19:49;;;;;;;9.97;6.30;;;7.20;99.90;;;;;;5098643;28;20576;-72
2024/04/04 08:22:36;;;;;;;10.07;6.13;;;7.30;99.90;;;;;;5098492;28;20199;-71
2024/04/04 08:25:51;;;;;;;10.80;6.30;;;7.30;99.90;;;;;;5098732;28;20201;-72
2024/04/04 08:28:56;;;;;;;10.67;6.37;;;7.30;99.90;;;;;;5113841;28;20211;-72
2024/04/04 08:31:52;;;;;;;12.27;6.47;;;7.30;99.90;;;;;;5097811;28;20189;-71
2024/04/04 08:34:44;;;;;;;14.43;6.83;;;7.30;99.90;;;;;;5085038;28;20378;-72
2024/04/04 08:37:34;;;;;;;11.00;6.40;;;7.30;99.90;;;;;;5084305;28;20185;-71
2024/04/04 08:40:22;;;;;;;11.13;6.20;;;7.30;99.90;;;;;;5098815;28;20192;-71
2024/04/04 08:43:13;;;;;;;10.73;6.43;;;7.40;99.90;;;;;;5097642;28;20192;-72
2024/04/04 08:49:08;;;;;;;11.13;6.83;;;7.60;99.90;;;;;;5098576;28;20223;-71
2024/04/04 08:52:19;;;;;;;12.23;7.53;;;7.70;99.90;;;;;;5011172;28;20199;-72
2024/04/04 08:55:06;;;;;;;12.27;6.60;;;7.90;99.90;;;;;;5010541;28;20201;-72
2024/04/04 08:57:58;;;;;;;10.47;6.73;;;8.10;99.90;;;;;;4998734;28;20207;-72
2024/04/04 09:00:46;;;;;;;11.40;6.97;;;8.20;99.90;;;;;;5011113;28;20209;-71
2024/04/04 09:03:32;;;;;;;11.60;6.50;;;8.30;99.90;;;;;;5010980;28;20672;-72
2024/04/04 09:06:35;;;;;;;11.63;6.80;;;8.30;99.90;;;;;;4997773;28;20660;-72
2024/04/04 09:09:25;;;;;;;10.97;7.00;;;8.30;99.90;;;;;;5009639;28;20192;-72
2024/04/04 09:12:30;;;;;;;12.40;7.13;;;8.30;99.90;;;;;;5010739;28;20192;-72
2024/04/04 09:15:22;;;;;;;10.70;6.60;;;8.20;99.90;;;;;;4997728;28;20247;-72
2024/04/04 09:18:10;;;;;;;11.43;7.40;;;8.20;99.90;;;;;;4990455;28;20192;-72
2024/04/04 09:21:00;;;;;;;12.20;7.10;;;8.20;99.90;;;;;;4990531;28;20213;-72
2024/04/04 09:24:05;;;;;;;11.30;7.23;;;8.20;99.90;;;;;;4963962;28;20205;-72
2024/04/04 09:26:52;;;;;;;11.40;7.07;;;8.30;99.90;;;;;;4976875;28;20709;-72
2024/04/04 09:29:39;;;;;;;13.57;7.50;;;8.30;99.90;;;;;;5055332;28;20205;-72
2024/04/04 09:32:33;;;;;;;12.13;7.70;;;8.40;99.90;;;;;;5076712;28;20548;-71
2024/04/04 09:35:21;;;;;;;11.27;6.97;;;8.60;99.90;;;;;;5077572;28;20216;-72
2024/04/04 09:41:21;;;;;;;13.80;8.20;;;8.90;99.90;;;;;;5076878;28;20188;-72
2024/04/04 09:44:42;;;;;;;12.47;6.90;;;9.00;99.90;;;;;;5075997;28;20563;-72
2024/04/04 09:50:56;;;;;;;13.07;7.33;;;9.40;99.90;;;;;;5076433;28;20213;-72
2024/04/04 09:53:43;;;;;;;12.07;7.00;;;9.80;99.90;;;;;;5077365;28;20227;-72
2024/04/04 09:56:30;;;;;;;12.43;7.50;;;10.00;99.90;;;;;;5077525;28;20197;-72
2024/04/04 09:59:43;;;;;;;12.83;7.33;;;10.20;99.90;;;;;;5049984;28;20194;-72
2024/04/04 10:02:37;;;;;;;12.17;7.43;;;10.20;99.90;;;;;;5076395;28;20629;-72
2024/04/04 10:05:41;;;;;;;13.23;7.40;;;10.30;99.90;;;;;;5076740;28;20209;-72
2024/04/04 10:08:39;;;;;;;12.93;7.63;;;10.40;99.90;;;;;;5076927;28;20209;-72
2024/04/04 10:11:34;;;;;;;12.70;7.10;;;10.50;99.90;;;;;;5076341;28;20212;-71
2024/04/04 10:14:49;;;;;;;14.07;7.50;;;10.70;99.90;;;;;;5075764;28;20194;-73
2024/04/04 10:18:11;;;;;;;12.63;7.87;;;10.70;99.90;;;;;;5087370;28;20237;-72
2024/04/04 10:21:00;;;;;;;15.87;7.87;;;10.80;99.90;;;;;;5014222;28;20219;-72
2024/04/04 10:24:00;;;;;;;11.67;7.43;;;11.00;99.90;;;;;;5015583;28;20272;-72
2024/04/04 10:27:00;;;;;;;12.40;7.40;;;11.00;99.90;;;;;;5027633;28;20191;-72
2024/04/04 10:30:05;;;;;;;13.87;7.93;;;11.30;99.90;;;;;;5000475;28;20679;-72
2024/04/04 10:32:51;;;;;;;15.50;7.87;;;11.30;99.90;;;;;;5015071;28;20655;-72
2024/04/04 10:35:41;;;;;;;13.30;7.77;;;11.50;99.90;;;;;;5027831;28;20211;-72
2024/04/04 10:38:48;;;;;;;13.10;7.33;;;11.80;99.90;;;;;;5027706;28;20569;-73
2024/04/04 10:41:59;;;;;;;13.27;7.60;;;12.20;99.90;;;;;;5027340;28;20198;-72
2024/04/04 10:51:41;;;;;;;14.97;7.93;;;13.10;99.90;;;;;;5027200;28;20588;-72
2024/04/04 10:54:48;;;;;;;12.30;7.73;;;13.30;99.90;;;;;;5014155;28;20192;-72
2024/04/04 10:57:55;;;;;;;13.80;8.00;;;13.50;99.90;;;;;;5056819;28;20205;-72
2024/04/04 11:00:41;;;;;;;12.23;7.50;;;13.70;99.90;;;;;;5089307;28;20210;-72
2024/04/04 11:03:32;;;;;;;13.27;7.47;;;14.00;99.90;;;;;;5076546;28;20197;-72
2024/04/04 11:06:39;;;;;;;13.40;7.70;;;14.00;99.90;;;;;;5090662;28;20216;-71
2024/04/04 11:09:26;;;;;;;11.00;6.73;;;14.60;99.90;;;;;;5089670;28;20284;-73
2024/04/04 11:12:16;;;;;;;11.83;7.23;;;15.30;99.90;;;;;;5089137;28;20190;-72
2024/04/04 11:15:36;;;;;;;12.47;7.43;;;15.80;99.90;;;;;;5075591;28;20189;-72
2024/04/04 11:21:57;;;;;;;11.33;7.10;;;16.20;99.90;;;;;;5076316;28;20196;-73
2024/04/04 11:24:46;;;;;;;11.30;7.37;;;16.20;99.90;;;;;;5076177;28;20558;-72
2024/04/04 11:28:10;;;;;;;10.67;6.83;;;16.50;99.90;;;;;;5076593;28;20610;-72
2024/04/04 11:30:57;;;;;;;11.83;6.53;;;16.40;99.90;;;;;;5076484;28;20194;-73
2024/04/04 11:33:43;;;;;;;10.73;6.53;;;16.50;99.90;;;;;;5075514;28;20190;-72
2024/04/04 11:36:30;;;;;;;11.00;6.77;;;16.90;99.90;;;;;;5076553;28;20675;-72
2024/04/04 11:39:35;;;;;;;10.77;6.30;;;17.80;99.90;;;;;;5076115;28;20193;-72
2024/04/04 11:42:22;;;;;;;12.07;6.70;;;18.50;99.90;;;;;;5077510;28;20194;-72
2024/04/04 11:45:09;;;;;;;11.87;6.67;;;19.10;99.90;;;;;;5079455;28;20668;-72
2024/04/04 11:47:55;;;;;;;10.60;6.47;;;20.00;99.90;;;;;;5078817;28;20217;-73
2024/04/04 11:50:42;;;;;;;9.73;6.10;;;20.40;99.90;;;;;;5078899;28;20618;-73
2024/04/04 11:53:28;;;;;;;9.17;5.57;;;19.70;99.90;;;;;;5078960;28;20198;-73
2024/04/04 11:56:52;;;;;;;11.10;6.03;;;20.00;99.90;;;;;;5064610;28;20200;-73
2024/04/04 11:59:39;;;;;;;8.80;5.80;;;19.80;99.90;;;;;;5063963;28;20190;-73
2024/04/04 12:02:25;;;;;;;8.17;5.37;;;19.90;99.90;;;;;;5078653;28;20194;-73
2024/04/04 12:05:12;;;;;;;10.83;6.23;;;20.60;99.90;;;;;;5079304;28;20231;-73
2024/04/04 12:08:01;;;;;;;9.03;6.00;;;21.10;99.90;;;;;;5066004;28;20228;-73
2024/04/04 12:10:53;;;;;;;10.87;6.27;;;22.00;99.90;;;;;;5078390;28;20201;-73
2024/04/04 12:13:46;;;;;;;10.47;6.67;;;22.40;99.90;;;;;;5078069;28;20194;-73
2024/04/04 12:16:32;;;;;;;8.43;5.67;;;22.70;99.90;;;;;;5074346;28;20273;-73
2024/04/04 12:19:28;;;;;;;8.60;5.93;;;22.80;99.90;;;;;;5083750;28;20545;-73
2024/04/04 12:22:17;;;;;;;7.97;5.83;;;21.60;99.90;;;;;;5097682;28;20196;-73
2024/04/04 12:25:07;;;;;;;8.70;5.93;;;21.50;99.90;;;;;;5097383;28;20193;-73
2024/04/04 12:28:00;;;;;;;8.07;5.73;;;20.90;99.90;;;;;;5098453;28;20583;-73
2024/04/04 12:30:59;;;;;;;10.40;6.20;;;20.60;99.90;;;;;;5098256;28;20612;-73
2024/04/04 12:34:05;;;;;;;10.37;6.10;;;20.20;99.90;;;;;;5113601;28;20578;-72
2024/04/04 12:37:26;;;;;;;9.10;5.43;;;19.70;99.90;;;;;;5097423;28;20189;-72
2024/04/04 12:40:13;;;;;;;9.63;5.67;;;19.60;99.90;;;;;;5084250;28;20199;-73
2024/04/04 12:42:59;;;;;;;8.27;5.67;;;19.10;99.90;;;;;;5096881;28;20195;-73
2024/04/04 12:46:10;;;;;;;8.50;5.30;;;18.60;99.90;;;;;;5097775;28;20189;-73
2024/04/04 12:49:07;;;;;;;8.73;5.60;;;18.40;99.90;;;;;;5097068;28;20227;-72
2024/04/04 12:51:56;;;;;;;9.20;5.30;;;18.20;99.90;;;;;;5097103;28;20193;-72
2024/04/04 12:54:44;;;;;;;8.43;5.37;;;17.80;99.90;;;;;;5097716;28;20188;-72
2024/04/04 12:57:34;;;;;;;7.70;5.10;;;17.50;99.90;;;;;;5097551;28;20189;-73
2024/04/04 13:00:20;;;;;;;7.07;4.90;;;17.20;99.90;;;;;;5097754;28;20196;-73
2024/04/04 13:03:19;;;;;;;7.30;5.00;;;17.20;99.90;;;;;;5098071;28;20193;-72
2024/04/04 13:06:14;;;;;;;9.97;5.50;;;17.30;99.90;;;;;;5096794;28;20185;-72
2024/04/04 13:09:31;;;;;;;8.37;5.33;;;17.20;99.90;;;;;;5097431;28;20227;-73
2024/04/04 13:12:58;;;;;;;8.77;6.03;;;17.10;99.90;;;;;;5084162;28;20694;-72
2024/04/04 13:15:45;;;;;;;9.43;5.80;;;16.80;99.90;;;;;;5097296;28;20269;-73
2024/04/04 13:18:32;;;;;;;9.20;5.73;;;16.70;99.90;;;;;;5097005;28;20201;-72
2024/04/04 13:21:30;;;;;;;8.67;5.90;;;16.50;99.90;;;;;;5096778;28;20587;-72
2024/04/04 13:24:18;;;;;;;9.27;5.40;;;16.30;99.90;;;;;;5097846;28;20193;-73
2024/04/04 13:27:08;;;;;;;10.00;5.37;;;16.30;99.90;;;;;;5098439;28;20565;-72
2024/04/04 13:30:09;;;;;;;7.57;4.60;;;16.20;99.90;;;;;;5083389;28;20192;-73
2024/04/04 13:33:02;;;;;;;6.50;4.47;;;16.30;99.90;;;;;;5096904;28;20184;-73
2024/04/04 13:35:51;;;;;;;7.13;4.80;;;16.40;99.90;;;;;;5098086;28;20213;-73
2024/04/04 13:38:37;;;;;;;10.20;4.30;;;16.50;99.90;;;;;;5097003;28;20610;-73
2024/04/04 13:41:45;;;;;;;6.57;4.33;;;16.50;99.90;;;;;;5082826;28;20188;-72
2024/04/04 13:44:34;;;;;;;14.57;4.80;;;16.60;99.90;;;;;;5082633;28;20565;-79
2024/04/04 13:47:43;;;;;;;7.33;4.50;;;16.70;99.90;;;;;;5083781;28;20219;-77
2024/04/04 13:50:29;;;;;;;6.93;4.53;;;16.60;99.90;;;;;;5096160;28;20545;-79
2024/04/04 13:53:15;;;;;;;7.00;4.20;;;16.70;99.90;;;;;;5096224;28;20197;-72
2024/04/04 13:56:02;;;;;;;8.03;4.47;;;16.90;99.90;;;;;;5096311;28;20202;-75
2024/04/04 13:59:07;;;;;;;6.90;4.40;;;16.80;99.90;;;;;;5082152;28;20197;-75
2024/04/04 14:01:54;;;;;;;8.33;4.63;;;17.10;99.90;;;;;;5082149;28;20608;-78
2024/04/04 14:04:45;;;;;;;7.77;4.50;;;17.50;99.90;;;;;;5081103;28;20679;-77
2024/04/04 14:07:32;;;;;;;7.03;4.00;;;18.40;99.90;;;;;;5082743;28;20545;-78
2024/04/04 14:10:23;;;;;;;6.63;3.93;;;18.50;99.90;;;;;;5096357;28;20195;-79
2024/04/04 14:13:12;;;;;;;6.40;3.87;;;18.30;99.90;;;;;;5096324;28;20199;-78
2024/04/04 14:16:18;;;;;;;5.63;3.90;;;18.20;99.90;;;;;;5095519;28;20243;-75
2024/04/04 14:19:07;;;;;;;5.47;3.80;;;17.90;99.90;;;;;;5096918;28;20216;-79
2024/04/04 14:22:00;;;;;;;7.80;4.80;;;17.60;99.90;;;;;;5094880;28;20764;-72
2024/04/04 14:24:46;;;;;;;7.03;4.77;;;17.20;99.90;;;;;;5095953;28;20674;-72
2024/04/04 14:31:00;;;;;;;6.60;4.37;;;16.70;99.90;;;;;;5096740;28;20188;-72
2024/04/04 14:34:30;;;;;;;8.73;4.70;;;16.60;99.90;;;;;;5095607;28;20279;-72
2024/04/04 14:37:35;;;;;;;7.23;4.30;;;16.60;99.90;;;;;;5096112;28;20651;-71
2024/04/04 14:40:24;;;;;;;7.13;4.57;;;16.80;99.90;;;;;;5096696;28;20199;-72
2024/04/04 14:43:54;;;;;;;8.43;4.23;;;16.60;99.90;;;;;;5096601;28;20193;-71
2024/04/04 14:46:59;;;;;;;8.47;4.20;;;16.40;99.90;;;;;;5094696;28;20188;-72
2024/04/04 14:57:11;;;;;;;6.23;4.00;;;16.80;99.90;;;;;;5096542;28;20591;-72
2024/04/04 14:59:57;;;;;;;6.80;4.07;;;18.00;99.90;;;;;;5096558;28;20203;-72
2024/04/04 15:02:47;;;;;;;6.30;4.00;;;18.40;99.90;;;;;;5095661;28;20200;-72
2024/04/04 15:05:37;;;;;;;6.50;4.00;;;18.90;99.90;;;;;;5095856;28;20614;-73
2024/04/04 15:11:48;;;;;;;6.00;3.97;;;19.60;99.90;;;;;;5097028;28;20604;-72
2024/04/04 15:14:34;;;;;;;9.03;4.70;;;19.30;99.90;;;;;;5096369;28;20189;-73
2024/04/04 15:17:27;;;;;;;7.87;4.10;;;18.90;99.90;;;;;;5079554;28;20256;-72
2024/04/04 15:20:40;;;;;;;7.23;4.43;;;18.60;99.90;;;;;;5093619;28;20205;-72
2024/04/04 15:23:26;;;;;;;8.63;4.60;;;18.00;99.90;;;;;;5078574;28;20196;-72
2024/04/04 15:26:31;;;;;;;6.83;4.30;;;17.60;99.90;;;;;;5079020;28;20649;-72
2024/04/04 15:29:24;;;;;;;6.80;4.43;;;17.20;99.90;;;;;;5079585;28;20217;-72
2024/04/04 15:32:12;;;;;;;7.63;4.40;;;16.90;99.90;;;;;;5078260;28;20246;-73
2024/04/04 15:39:29;;;;;;;10.17;4.70;;;16.30;99.90;;;;;;5079372;28;20186;-78
2024/04/04 15:42:15;;;;;;;8.07;4.80;;;16.20;99.90;;;;;;5078859;28;20330;-79
2024/04/04 15:48:26;;;;;;;10.67;4.93;;;15.80;99.90;;;;;;5078788;28;20225;-80
2024/04/04 15:51:52;;;;;;;8.03;4.80;;;15.70;99.90;;;;;;5078749;28;20186;-79